Time;durP1;ratioP1;P1;durP2;ratioP2;P2;SDS_P1;SDS_P2;PMS_P1;PMS_P2;Temp;Humidity;BMP_temperature;BMP_pressure;BME280_temperature;BME280_humidity;BME280_pressure;Samples;Min_cycle;Max_cycle;Signal;HPM_P1;HPM_P2
2023/04/29 00:00:34;;;;;;;19.70;9.00;;;9.10;99.90;;;;;;5074452;28;20052;-40
2023/04/29 00:03:00;;;;;;;21.70;9.70;;;9.10;99.90;;;;;;5074335;28;20468;-39
2023/04/29 00:05:26;;;;;;;18.20;8.43;;;9.10;99.90;;;;;;5074184;28;20052;-40
2023/04/29 00:07:52;;;;;;;19.13;8.77;;;9.00;99.90;;;;;;5073443;28;20128;-39
2023/04/29 00:10:17;;;;;;;16.77;9.30;;;9.00;99.90;;;;;;5073345;28;20392;-40
2023/04/29 00:12:43;;;;;;;19.83;9.00;;;9.00;99.90;;;;;;5074318;28;20044;-39
2023/04/29 00:15:09;;;;;;;20.67;9.57;;;9.00;99.90;;;;;;5074161;28;20048;-39
2023/04/29 00:17:35;;;;;;;24.42;8.82;;;9.00;99.90;;;;;;5074079;28;20495;-40
2023/04/29 00:20:01;;;;;;;19.02;9.80;;;9.00;99.90;;;;;;5073966;28;20052;-40
2023/04/29 00:22:27;;;;;;;15.20;8.25;;;9.00;99.90;;;;;;5074044;28;20506;-39
2023/04/29 00:24:53;;;;;;;18.03;8.13;;;9.00;99.90;;;;;;5074030;28;20127;-40
2023/04/29 00:27:19;;;;;;;16.27;7.83;;;9.00;99.90;;;;;;5089889;28;20044;-40
2023/04/29 00:29:44;;;;;;;17.87;9.33;;;9.00;99.90;;;;;;5073898;28;20045;-40
2023/04/29 00:32:10;;;;;;;17.37;8.77;;;9.00;99.90;;;;;;5073215;28;20109;-40
2023/04/29 00:34:36;;;;;;;16.50;7.83;;;9.00;99.90;;;;;;5073640;28;20048;-40
2023/04/29 00:37:01;;;;;;;18.43;7.40;;;9.00;99.90;;;;;;5073987;28;20079;-39
2023/04/29 00:39:27;;;;;;;14.07;6.90;;;9.00;99.90;;;;;;5072942;28;20041;-40
2023/04/29 00:41:53;;;;;;;17.07;8.03;;;8.90;99.90;;;;;;5072590;28;20442;-39
2023/04/29 00:44:18;;;;;;;16.33;7.40;;;8.90;99.90;;;;;;5073093;28;20110;-40
2023/04/29 00:46:44;;;;;;;17.07;6.63;;;8.90;99.90;;;;;;5073843;28;20040;-40
2023/04/29 00:49:12;;;;;;;14.50;7.07;;;8.90;99.90;;;;;;5072852;28;20084;-40
2023/04/29 00:51:39;;;;;;;14.80;7.13;;;8.90;99.90;;;;;;5073808;28;20105;-41
2023/04/29 00:54:06;;;;;;;13.23;6.57;;;8.90;99.90;;;;;;5072592;28;20092;-40
2023/04/29 00:56:34;;;;;;;14.57;7.93;;;8.90;99.90;;;;;;5073622;28;20101;-39
2023/04/29 00:59:02;;;;;;;14.98;6.97;;;8.90;99.90;;;;;;5072546;28;20055;-40
2023/04/29 01:01:29;;;;;;;13.00;6.80;;;8.90;99.90;;;;;;5073284;28;20041;-40
2023/04/29 01:03:56;;;;;;;13.20;6.35;;;8.90;99.90;;;;;;5072565;28;20056;-40
2023/04/29 01:06:27;;;;;;;;;;;8.90;99.90;;;;;;5073021;28;20049;-40
2023/04/29 01:09:20;;;;;;;17.75;7.03;;;8.90;99.90;;;;;;5072495;28;20143;-40
2023/04/29 01:12:05;;;;;;;15.57;6.82;;;8.80;99.90;;;;;;5073611;28;20048;-39
2023/04/29 01:14:33;;;;;;;15.43;6.47;;;8.80;99.90;;;;;;5074099;28;20112;-40
2023/04/29 01:17:04;;;;;;;16.38;7.05;;;8.80;99.90;;;;;;5072762;28;20060;-39
2023/04/29 01:19:40;;;;;;;14.07;6.82;;;8.80;99.90;;;;;;5073412;28;20391;-40
2023/04/29 01:22:06;;;;;;;13.50;7.35;;;8.80;99.90;;;;;;5073393;28;20051;-40
2023/04/29 01:24:32;;;;;;;15.90;7.53;;;8.80;99.90;;;;;;5072409;28;20044;-40
2023/04/29 01:27:09;;;;;;;15.93;7.35;;;8.80;99.90;;;;;;5072970;28;20109;-39
2023/04/29 01:29:55;;;;;;;15.63;7.20;;;8.80;99.90;;;;;;5072421;28;20044;-39
2023/04/29 01:32:42;;;;;;;16.88;7.50;;;8.80;99.90;;;;;;5073217;28;20047;-39
2023/04/29 01:35:31;;;;;;;19.63;8.07;;;8.80;99.90;;;;;;5073277;28;20127;-39
2023/04/29 01:38:32;;;;;;;15.57;6.75;;;8.70;99.90;;;;;;5073581;28;20054;-39
2023/04/29 01:41:09;;;;;;;15.75;7.70;;;8.70;99.90;;;;;;5056009;28;20049;-40
2023/04/29 01:43:36;;;;;;;15.77;7.50;;;8.60;99.90;;;;;;5073118;28;20483;-40
2023/04/29 01:46:05;;;;;;;16.00;7.32;;;8.60;99.90;;;;;;5073589;28;20052;-40
2023/04/29 01:48:31;;;;;;;15.18;7.35;;;8.60;99.90;;;;;;5072011;28;20059;-40
2023/04/29 01:50:57;;;;;;;13.07;6.50;;;8.50;99.90;;;;;;5073124;28;20060;-39
2023/04/29 01:53:22;;;;;;;15.33;7.60;;;8.50;99.90;;;;;;5073120;28;20537;-40
2023/04/29 01:55:48;;;;;;;16.07;7.27;;;8.40;99.90;;;;;;5072952;28;20090;-40
2023/04/29 01:58:14;;;;;;;14.50;7.27;;;8.40;99.90;;;;;;5072873;28;20044;-40
2023/04/29 02:00:40;;;;;;;14.17;7.27;;;8.40;99.90;;;;;;5075440;28;20060;-40
2023/04/29 02:03:06;;;;;;;13.32;6.30;;;8.30;99.90;;;;;;5076595;28;20450;-40
2023/04/29 02:05:32;;;;;;;14.10;6.60;;;8.30;99.90;;;;;;5076857;28;20049;-40
2023/04/29 02:07:59;;;;;;;;;;;8.20;99.90;;;;;;5077310;28;20055;-40
2023/04/29 02:10:26;;;;;;;13.38;6.28;;;8.10;99.90;;;;;;5075467;28;20333;-40
2023/04/29 02:12:52;;;;;;;13.50;6.32;;;8.10;99.90;;;;;;5075632;28;20483;-40
2023/04/29 02:15:18;;;;;;;12.43;6.73;;;8.00;99.90;;;;;;5076487;28;20054;-40
2023/04/29 02:17:44;;;;;;;16.63;6.85;;;8.00;99.90;;;;;;5075362;28;20058;-40
2023/04/29 02:20:10;;;;;;;15.33;7.80;;;7.90;99.90;;;;;;5076647;28;20441;-39
2023/04/29 02:22:36;;;;;;;14.25;7.13;;;7.90;99.90;;;;;;5076235;28;20052;-39
2023/04/29 02:25:01;;;;;;;13.67;6.73;;;7.90;99.90;;;;;;5076199;28;20132;-40
2023/04/29 02:27:27;;;;;;;16.67;7.23;;;7.90;99.90;;;;;;5058527;28;20055;-39
2023/04/29 02:29:53;;;;;;;13.30;6.50;;;7.90;99.90;;;;;;5076290;28;20055;-40
2023/04/29 02:32:21;;;;;;;16.37;7.00;;;7.90;99.90;;;;;;5076450;28;20066;-40
2023/04/29 02:34:48;;;;;;;13.35;6.63;;;7.90;99.90;;;;;;5075184;28;20052;-40
2023/04/29 02:37:14;;;;;;;13.35;6.38;;;8.00;99.90;;;;;;5074950;28;20049;-39
2023/04/29 02:39:40;;;;;;;12.10;5.60;;;8.00;99.90;;;;;;5074877;28;20048;-40
2023/04/29 02:42:06;;;;;;;12.77;5.88;;;8.00;99.90;;;;;;5076492;28;20087;-40
2023/04/29 02:44:32;;;;;;;10.15;4.90;;;8.00;99.90;;;;;;5076053;28;20457;-39
2023/04/29 02:46:58;;;;;;;11.80;5.67;;;8.00;99.90;;;;;;5075968;28;20145;-39
2023/04/29 02:49:23;;;;;;;13.63;6.23;;;8.00;99.90;;;;;;5075952;28;20393;-39
2023/04/29 02:51:49;;;;;;;15.23;6.30;;;8.00;99.90;;;;;;5074674;28;20162;-40
2023/04/29 02:54:15;;;;;;;16.07;7.07;;;8.00;99.90;;;;;;5075686;28;20088;-40
2023/04/29 02:56:42;;;;;;;15.43;6.93;;;8.00;99.90;;;;;;5075825;28;20049;-40
2023/04/29 02:59:08;;;;;;;13.65;7.00;;;8.00;99.90;;;;;;5075776;28;20053;-40
2023/04/29 03:01:34;;;;;;;13.55;6.60;;;8.10;99.90;;;;;;5058008;28;20056;-40
2023/04/29 03:04:00;;;;;;;14.53;6.43;;;8.10;99.90;;;;;;5075513;28;20044;-39
2023/04/29 03:06:26;;;;;;;12.77;6.07;;;8.10;99.90;;;;;;5075649;28;20049;-40
2023/04/29 03:08:52;;;;;;;12.98;6.68;;;8.10;99.90;;;;;;5075278;28;20487;-39
2023/04/29 03:11:19;;;;;;;12.18;5.70;;;8.20;99.90;;;;;;5074579;28;20036;-40
2023/04/29 03:13:45;;;;;;;12.95;5.72;;;8.20;99.90;;;;;;5075470;28;20131;-40
2023/04/29 03:16:13;;;;;;;12.37;6.03;;;8.20;99.90;;;;;;5074871;28;20132;-40
2023/04/29 03:18:40;;;;;;;14.93;5.80;;;8.20;99.90;;;;;;5075362;28;20055;-40
2023/04/29 03:21:05;;;;;;;12.82;5.53;;;8.20;99.90;;;;;;5073918;28;20113;-40
2023/04/29 03:23:31;;;;;;;11.90;5.03;;;8.20;99.90;;;;;;5075154;28;20052;-40
2023/04/29 03:25:57;;;;;;;11.65;5.30;;;8.30;99.90;;;;;;5075380;28;20048;-40
2023/04/29 03:28:23;;;;;;;12.10;5.63;;;8.30;99.90;;;;;;5075696;28;20040;-40
2023/04/29 03:30:49;;;;;;;11.05;4.85;;;8.30;99.90;;;;;;5075118;28;20071;-40
2023/04/29 03:33:15;;;;;;;14.33;6.00;;;8.40;99.90;;;;;;5075179;28;20495;-40
2023/04/29 03:35:41;;;;;;;11.90;5.00;;;8.40;99.90;;;;;;5074810;28;20400;-40
2023/04/29 03:38:06;;;;;;;13.33;6.23;;;8.40;99.90;;;;;;5074986;28;20048;-40
2023/04/29 03:40:32;;;;;;;11.90;4.53;;;8.40;99.90;;;;;;5074926;28;20044;-40
2023/04/29 03:42:59;;;;;;;10.73;4.63;;;8.40;99.90;;;;;;5075013;28;20072;-40
2023/04/29 03:45:25;;;;;;;10.93;4.88;;;8.40;99.90;;;;;;5074194;28;20051;-40
2023/04/29 03:47:52;;;;;;;10.83;4.87;;;8.50;99.90;;;;;;5074782;28;20040;-40
2023/04/29 03:50:18;;;;;;;10.93;5.03;;;8.50;99.90;;;;;;5074499;28;20392;-40
2023/04/29 03:52:44;;;;;;;10.20;4.77;;;8.50;99.90;;;;;;5074717;28;20131;-40
2023/04/29 03:55:10;;;;;;;11.07;4.65;;;8.50;99.90;;;;;;5074667;28;20391;-41
2023/04/29 03:57:36;;;;;;;10.50;5.03;;;8.50;99.90;;;;;;5075025;28;20052;-39
2023/04/29 04:00:01;;;;;;;11.77;4.90;;;8.50;99.90;;;;;;5056924;28;20041;-40
2023/04/29 04:02:27;;;;;;;12.23;5.33;;;8.50;99.90;;;;;;5074602;28;20044;-40
2023/04/29 04:04:54;;;;;;;12.97;4.80;;;8.50;99.90;;;;;;5073562;28;20388;-40
2023/04/29 04:07:19;;;;;;;12.80;5.35;;;8.50;99.90;;;;;;5074209;28;20504;-40
2023/04/29 04:09:45;;;;;;;10.57;4.75;;;8.50;99.90;;;;;;5074324;28;20077;-40
2023/04/29 04:12:11;;;;;;;11.60;5.03;;;8.50;99.90;;;;;;5074339;28;20071;-40
2023/04/29 04:14:36;;;;;;;12.70;5.97;;;8.50;99.90;;;;;;5056691;28;20048;-40
2023/04/29 04:17:02;;;;;;;10.17;4.83;;;8.50;99.90;;;;;;5074100;28;20048;-40
2023/04/29 04:19:29;;;;;;;13.82;5.53;;;8.50;99.90;;;;;;5074083;28;20048;-40
2023/04/29 04:21:56;;;;;;;9.57;4.75;;;8.50;99.90;;;;;;5073698;28;20365;-40
2023/04/29 04:24:22;;;;;;;15.60;6.22;;;8.50;99.90;;;;;;5074159;28;20170;-40
2023/04/29 04:26:47;;;;;;;9.95;4.97;;;8.50;99.90;;;;;;5074048;28;20128;-40
2023/04/29 04:29:13;;;;;;;11.70;5.43;;;8.50;99.90;;;;;;5073902;28;20135;-40
2023/04/29 04:31:39;;;;;;;11.73;5.10;;;8.50;99.90;;;;;;5074007;28;20045;-40
2023/04/29 04:34:05;;;;;;;11.60;5.40;;;8.50;99.90;;;;;;5074080;28;20101;-40
2023/04/29 04:36:31;;;;;;;10.97;5.57;;;8.50;99.90;;;;;;5073850;28;20044;-40
2023/04/29 04:38:57;;;;;;;12.27;5.82;;;8.60;99.90;;;;;;5074144;28;20125;-40
2023/04/29 04:41:23;;;;;;;12.13;5.50;;;8.50;99.90;;;;;;5073725;28;20476;-40
2023/04/29 04:43:48;;;;;;;15.33;5.57;;;8.50;99.90;;;;;;5073235;28;20290;-40
2023/04/29 04:46:15;;;;;;;10.90;5.40;;;8.50;99.90;;;;;;5074179;28;20480;-40
2023/04/29 04:48:41;;;;;;;11.90;5.53;;;8.50;99.90;;;;;;5073807;28;20051;-40
2023/04/29 04:51:11;;;;;;;9.80;4.80;;;8.50;99.90;;;;;;5073570;28;20056;-40
2023/04/29 04:53:37;;;;;;;11.95;5.35;;;8.50;99.90;;;;;;5073786;28;20044;-40
2023/04/29 04:56:03;;;;;;;10.40;5.35;;;8.50;99.90;;;;;;5072542;28;20052;-40
2023/04/29 04:58:33;;;;;;;14.65;5.03;;;8.50;99.90;;;;;;5073718;28;20048;-40
2023/04/29 05:00:59;;;;;;;11.32;5.28;;;8.50;99.90;;;;;;5073550;28;20048;-40
2023/04/29 05:03:25;;;;;;;10.77;5.50;;;8.60;99.90;;;;;;5073686;28;20051;-40
2023/04/29 05:06:00;;;;;;;11.67;5.43;;;8.60;99.90;;;;;;5073375;28;20040;-40
2023/04/29 05:08:26;;;;;;;13.10;5.10;;;8.60;99.90;;;;;;5072862;28;20287;-40
2023/04/29 05:10:52;;;;;;;12.33;5.80;;;8.60;99.90;;;;;;5073587;28;20044;-40
2023/04/29 05:13:18;;;;;;;12.05;5.57;;;8.60;99.90;;;;;;5072371;28;20050;-40
2023/04/29 05:15:44;;;;;;;10.02;4.68;;;8.60;99.90;;;;;;5073589;28;20080;-40
2023/04/29 05:18:10;;;;;;;12.15;5.47;;;8.60;99.90;;;;;;5073476;28;20392;-40
2023/04/29 05:20:36;;;;;;;10.00;5.00;;;8.60;99.90;;;;;;5073780;28;20044;-40
2023/04/29 05:23:02;;;;;;;12.07;5.07;;;8.60;99.90;;;;;;5073795;28;20044;-40
2023/04/29 05:25:29;;;;;;;11.93;4.93;;;8.60;99.90;;;;;;5073458;28;20290;-40
2023/04/29 05:27:54;;;;;;;11.48;6.05;;;8.60;99.90;;;;;;5073285;28;20465;-39
2023/04/29 05:30:20;;;;;;;11.17;5.30;;;8.60;99.90;;;;;;5073354;28;20040;-39
2023/04/29 05:32:47;;;;;;;9.50;4.15;;;8.70;99.90;;;;;;5073252;28;20045;-40
2023/04/29 05:35:14;;;;;;;9.38;4.45;;;8.70;99.90;;;;;;5075806;28;20044;-40
2023/04/29 05:37:40;;;;;;;;;;;8.70;99.90;;;;;;5077711;28;20059;-40
2023/04/29 05:40:06;;;;;;;12.90;5.07;;;8.70;99.90;;;;;;5077230;28;20019;-40
2023/04/29 05:42:32;;;;;;;10.88;4.65;;;8.70;99.90;;;;;;5077137;28;20502;-40
2023/04/29 05:44:58;;;;;;;9.65;4.47;;;8.70;99.90;;;;;;5077153;28;20036;-40
2023/04/29 05:47:23;;;;;;;11.60;4.50;;;8.80;99.90;;;;;;5075755;28;20388;-40
2023/04/29 05:49:49;;;;;;;8.97;4.60;;;8.80;99.90;;;;;;5077112;28;20391;-40
2023/04/29 05:52:15;;;;;;;8.93;3.90;;;8.80;99.90;;;;;;5076638;28;20064;-40
2023/04/29 05:54:41;;;;;;;9.43;4.10;;;8.80;99.90;;;;;;5077241;28;20098;-39
2023/04/29 05:57:06;;;;;;;11.37;4.23;;;8.90;99.90;;;;;;5076050;28;20044;-40
2023/04/29 05:59:32;;;;;;;9.33;4.33;;;9.00;99.90;;;;;;5076705;28;20040;-40
2023/04/29 06:01:59;;;;;;;10.63;4.00;;;9.00;99.90;;;;;;5076566;28;20044;-40
2023/04/29 06:04:25;;;;;;;11.27;3.92;;;9.20;99.90;;;;;;5076810;28;20132;-39
2023/04/29 06:06:55;;;;;;;11.68;4.13;;;9.30;99.90;;;;;;5076836;28;20399;-40
2023/04/29 06:09:24;;;;;;;7.85;4.03;;;9.40;99.90;;;;;;5076654;28;20045;-40
2023/04/29 06:11:50;;;;;;;9.20;4.10;;;9.70;99.90;;;;;;5076607;28;20502;-40
2023/04/29 06:14:16;;;;;;;10.65;4.10;;;10.00;99.90;;;;;;5076392;28;20048;-40
2023/04/29 06:16:42;;;;;;;9.90;4.50;;;10.30;99.90;;;;;;5076498;28;20044;-40
2023/04/29 06:19:08;;;;;;;9.57;3.60;;;10.90;99.90;;;;;;5076568;28;20048;-40
2023/04/29 06:21:33;;;;;;;10.40;4.47;;;11.20;99.90;;;;;;5075429;28;20068;-40
2023/04/29 06:23:59;;;;;;;8.50;3.97;;;11.10;99.90;;;;;;5076328;28;20040;-41
2023/04/29 06:26:24;;;;;;;7.83;3.70;;;11.00;99.90;;;;;;5076363;28;20053;-41
2023/04/29 06:28:50;;;;;;;9.43;4.03;;;11.00;99.90;;;;;;5075188;28;20044;-40
2023/04/29 06:31:16;;;;;;;10.47;3.70;;;11.60;99.90;;;;;;5076147;28;20044;-41
2023/04/29 06:33:42;;;;;;;8.63;4.10;;;12.50;99.90;;;;;;5075466;28;20105;-41
2023/04/29 06:36:07;;;;;;;8.32;4.00;;;13.30;99.90;;;;;;5076182;28;20392;-41
2023/04/29 06:38:33;;;;;;;8.23;3.40;;;14.20;99.90;;;;;;5076209;28;20118;-41
2023/04/29 06:40:59;;;;;;;10.10;3.67;;;14.80;99.90;;;;;;5076005;28;20040;-41
2023/04/29 06:43:31;;;;;;;9.90;3.67;;;15.40;99.90;;;;;;5076082;28;20090;-41
2023/04/29 06:45:57;;;;;;;8.57;3.35;;;15.60;99.90;;;;;;5074489;28;20102;-41
2023/04/29 06:48:22;;;;;;;8.90;3.30;;;15.80;99.90;;;;;;5076175;28;20433;-40
2023/04/29 06:50:53;;;;;;;6.50;3.20;;;15.50;99.90;;;;;;5075927;28;20334;-40
2023/04/29 06:53:19;;;;;;;9.27;3.25;;;15.00;99.90;;;;;;5074791;28;20045;-40
2023/04/29 06:55:45;;;;;;;8.07;3.75;;;14.40;99.90;;;;;;5075947;28;20053;-40
2023/04/29 06:58:15;;;;;;;7.70;3.20;;;13.80;99.90;;;;;;5074706;28;20048;-41
2023/04/29 07:00:45;;;;;;;8.20;2.80;;;13.50;99.90;;;;;;5075729;28;20052;-40
2023/04/29 07:03:11;;;;;;;6.55;3.47;;;13.40;99.90;;;;;;5075812;28;20051;-40
2023/04/29 07:05:44;;;;;;;10.15;3.95;;;13.40;99.90;;;;;;5075696;28;20049;-40
2023/04/29 07:08:12;;;;;;;7.40;2.92;;;13.50;99.90;;;;;;5074660;28;20052;-40
2023/04/29 07:10:38;;;;;;;9.20;3.35;;;13.50;99.90;;;;;;5057878;28;20059;-40
2023/04/29 07:13:03;;;;;;;10.57;3.17;;;13.50;99.90;;;;;;5075298;28;20049;-40
2023/04/29 07:15:32;;;;;;;7.50;2.97;;;13.40;99.90;;;;;;5074327;28;20040;-40
2023/04/29 07:17:59;;;;;;;7.05;2.78;;;13.50;99.90;;;;;;5075679;28;20052;-40
2023/04/29 07:20:26;;;;;;;7.05;3.22;;;13.50;99.90;;;;;;5075354;28;20056;-40
2023/04/29 07:22:51;;;;;;;;;;;13.40;99.90;;;;;;5075472;28;20518;-40
2023/04/29 07:25:17;;;;;;;5.55;2.50;;;13.50;99.90;;;;;;5075172;28;20026;-42
2023/04/29 07:27:43;;;;;;;7.10;2.78;;;13.60;99.90;;;;;;5075120;28;20048;-41
2023/04/29 07:30:09;;;;;;;7.88;2.72;;;13.70;99.90;;;;;;5075264;28;20127;-40
2023/04/29 07:32:35;;;;;;;8.90;3.03;;;13.70;99.90;;;;;;5091089;28;20132;-40
2023/04/29 07:35:02;;;;;;;7.07;2.80;;;13.70;99.90;;;;;;5075048;28;20049;-42
2023/04/29 07:37:27;;;;;;;7.40;2.65;;;13.60;99.90;;;;;;5075009;28;20051;-40
2023/04/29 07:39:53;;;;;;;7.03;2.70;;;13.30;99.90;;;;;;5074786;28;20123;-41
2023/04/29 07:42:19;;;;;;;6.00;2.40;;;13.00;99.90;;;;;;5074929;28;20545;-41
2023/04/29 07:44:44;;;;;;;5.23;2.03;;;12.80;99.90;;;;;;5074962;28;20128;-41
2023/04/29 07:47:11;;;;;;;5.73;2.67;;;12.60;99.90;;;;;;5074869;28;20383;-40
2023/04/29 07:49:37;;;;;;;7.30;2.42;;;12.50;99.90;;;;;;5074803;28;20339;-41
2023/04/29 07:52:08;;;;;;;8.70;3.47;;;12.40;99.90;;;;;;5074501;28;20056;-40
2023/04/29 07:54:37;;;;;;;8.75;2.70;;;12.40;99.90;;;;;;5074584;28;20059;-41
2023/04/29 07:57:04;;;;;;;7.38;2.88;;;12.30;99.90;;;;;;5074241;28;20044;-40
2023/04/29 07:59:30;;;;;;;;;;;12.20;99.90;;;;;;5073901;28;20044;-40
2023/04/29 08:01:56;;;;;;;9.13;3.17;;;12.20;99.90;;;;;;5074538;28;19920;-40
2023/04/29 08:04:22;;;;;;;6.37;2.93;;;12.10;99.90;;;;;;5073770;28;20047;-40
2023/04/29 08:06:48;;;;;;;7.35;2.67;;;12.20;99.90;;;;;;5073092;28;20314;-40
2023/04/29 08:09:15;;;;;;;6.32;2.67;;;12.10;99.90;;;;;;5074162;28;20050;-41
2023/04/29 08:11:41;;;;;;;7.07;3.10;;;12.10;99.90;;;;;;5073681;28;20579;-41
2023/04/29 08:14:07;;;;;;;7.30;2.83;;;12.10;99.90;;;;;;5074204;28;20167;-40
2023/04/29 08:16:33;;;;;;;9.63;3.45;;;12.10;99.90;;;;;;5074191;28;20483;-40
2023/04/29 08:18:59;;;;;;;8.60;3.30;;;12.20;99.90;;;;;;5073425;28;20055;-41
2023/04/29 08:21:24;;;;;;;7.00;3.07;;;12.20;99.90;;;;;;5072946;28;20174;-40
2023/04/29 08:23:52;;;;;;;6.30;2.63;;;12.20;99.90;;;;;;5074089;28;20090;-41
2023/04/29 08:26:17;;;;;;;10.40;3.58;;;12.20;99.90;;;;;;5074057;28;20048;-40
2023/04/29 08:28:43;;;;;;;7.47;3.10;;;12.20;99.90;;;;;;5073088;28;20041;-40
2023/04/29 08:31:19;;;;;;;6.70;2.80;;;12.20;99.90;;;;;;5074303;28;20542;-41
2023/04/29 08:33:45;;;;;;;8.38;3.08;;;12.20;99.90;;;;;;5074009;28;20040;-40
2023/04/29 08:36:11;;;;;;;7.95;3.45;;;12.30;99.90;;;;;;5072892;28;20054;-40
2023/04/29 08:38:37;;;;;;;8.13;3.33;;;12.30;99.90;;;;;;5073652;28;20052;-40
2023/04/29 08:41:02;;;;;;;6.95;2.78;;;12.30;99.90;;;;;;5073865;28;20040;-41
2023/04/29 08:43:29;;;;;;;7.07;2.43;;;12.30;99.90;;;;;;5073907;28;20527;-40
2023/04/29 08:45:57;;;;;;;5.50;2.67;;;12.40;99.90;;;;;;5073803;28;20431;-40
2023/04/29 08:48:25;;;;;;;7.30;2.72;;;12.30;99.90;;;;;;5072736;28;20051;-40
2023/04/29 08:50:51;;;;;;;5.95;2.85;;;12.30;99.90;;;;;;5073508;28;20536;-41
2023/04/29 08:53:16;;;;;;;5.93;2.37;;;12.30;99.90;;;;;;5073831;28;20128;-41
2023/04/29 08:55:45;;;;;;;4.03;1.83;;;12.30;99.90;;;;;;5073823;28;20282;-40
2023/04/29 08:58:11;;;;;;;5.03;1.67;;;12.30;99.90;;;;;;5072767;28;20053;-41
2023/04/29 09:00:40;;;;;;;4.38;1.70;;;12.30;99.90;;;;;;5073790;28;20056;-40
2023/04/29 09:03:35;;;;;;;4.88;1.85;;;12.30;99.90;;;;;;5073482;28;20044;-40
2023/04/29 09:06:02;;;;;;;4.03;1.50;;;12.30;99.90;;;;;;5074014;28;20084;-41
2023/04/29 09:08:29;;;;;;;5.82;1.35;;;12.30;99.90;;;;;;5073407;28;20458;-41
2023/04/29 09:10:55;;;;;;;4.68;1.40;;;12.40;99.90;;;;;;5073174;28;20495;-41
2023/04/29 09:13:29;;;;;;;7.63;1.70;;;12.40;99.90;;;;;;5073726;28;20044;-41
2023/04/29 09:15:56;;;;;;;4.97;1.58;;;12.40;99.90;;;;;;5073404;28;20040;-41
2023/04/29 09:18:43;;;;;;;4.45;1.58;;;12.50;99.90;;;;;;5073515;28;20044;-41
2023/04/29 09:21:19;;;;;;;6.85;1.63;;;12.50;99.90;;;;;;5072294;28;20048;-40
2023/04/29 09:23:49;;;;;;;4.20;1.60;;;12.60;99.90;;;;;;5072590;28;20059;-41
2023/04/29 09:26:16;;;;;;;4.53;1.60;;;12.50;99.90;;;;;;5073563;28;20087;-42
2023/04/29 09:28:43;;;;;;;5.18;1.40;;;12.50;99.90;;;;;;5073924;28;20416;-41
2023/04/29 09:31:10;;;;;;;5.18;2.13;;;12.60;99.90;;;;;;5073384;28;20399;-41
2023/04/29 09:33:53;;;;;;;6.65;2.08;;;12.60;99.90;;;;;;5073396;28;20049;-41
2023/04/29 09:36:37;;;;;;;8.02;2.22;;;12.70;99.90;;;;;;5073353;28;20178;-41
2023/04/29 09:39:09;;;;;;;6.80;2.28;;;12.70;99.90;;;;;;5072151;28;20055;-40
2023/04/29 09:41:35;;;;;;;5.70;2.28;;;12.70;99.90;;;;;;5073258;28;20479;-41
2023/04/29 09:44:05;;;;;;;8.87;2.37;;;12.80;99.90;;;;;;5073351;28;20058;-41
2023/04/29 09:46:35;;;;;;;6.20;2.30;;;12.80;99.90;;;;;;5073252;28;20503;-41
2023/04/29 09:49:03;;;;;;;5.88;2.13;;;12.80;99.90;;;;;;5073463;28;20048;-41
2023/04/29 09:51:31;;;;;;;5.28;2.13;;;12.80;99.90;;;;;;5073048;28;20049;-40
2023/04/29 09:54:17;;;;;;;4.80;2.00;;;12.90;99.90;;;;;;5073173;28;20040;-41
2023/04/29 09:56:51;;;;;;;7.93;2.25;;;13.00;99.90;;;;;;5073034;28;20055;-41
2023/04/29 09:59:18;;;;;;;6.85;2.50;;;13.00;99.90;;;;;;5073056;28;20055;-41
2023/04/29 10:01:50;;;;;;;6.10;2.63;;;13.00;99.90;;;;;;5072947;28;20048;-41
2023/04/29 10:04:17;;;;;;;6.00;2.55;;;13.00;99.90;;;;;;5072947;28;20139;-41
2023/04/29 10:06:45;;;;;;;6.55;2.35;;;13.10;99.90;;;;;;5073035;28;20041;-41
2023/04/29 10:09:16;;;;;;;5.68;2.63;;;13.10;99.90;;;;;;5073124;28;20045;-41
2023/04/29 10:11:46;;;;;;;6.43;2.78;;;13.10;99.90;;;;;;5073178;28;20094;-41
2023/04/29 10:14:23;;;;;;;5.38;2.42;;;13.10;99.90;;;;;;5072908;28;20055;-41
2023/04/29 10:17:04;;;;;;;7.15;2.53;;;13.20;99.90;;;;;;5073014;28;20526;-41
2023/04/29 10:19:36;;;;;;;6.88;2.50;;;13.20;99.90;;;;;;5071853;28;20044;-41
2023/04/29 10:22:19;;;;;;;8.20;2.47;;;13.10;99.90;;;;;;5076319;28;20044;-41
2023/04/29 10:24:47;;;;;;;6.40;2.15;;;13.20;99.90;;;;;;5076446;28;20048;-41
2023/04/29 10:27:14;;;;;;;5.25;2.17;;;13.20;99.90;;;;;;5076373;28;20044;-41
2023/04/29 10:29:42;;;;;;;5.28;1.77;;;13.30;99.90;;;;;;5076638;28;20384;-41
2023/04/29 10:32:12;;;;;;;4.57;1.50;;;13.40;99.90;;;;;;5075163;28;20495;-41
2023/04/29 10:34:41;;;;;;;4.88;1.55;;;13.40;99.90;;;;;;5075197;28;20090;-41
2023/04/29 10:37:10;;;;;;;3.55;1.25;;;13.50;99.90;;;;;;5076211;28;20059;-41
2023/04/29 10:39:51;;;;;;;2.30;0.88;;;13.50;99.90;;;;;;5076278;28;20048;-41
2023/04/29 10:42:42;;;;;;;2.10;1.13;;;13.60;99.90;;;;;;5075164;28;20056;-42
2023/04/29 10:45:27;;;;;;;1.75;0.85;;;13.60;99.90;;;;;;5075203;28;20487;-41
2023/04/29 10:48:14;;;;;;;1.98;0.60;;;13.70;99.90;;;;;;5075817;28;20091;-41
2023/04/29 10:50:59;;;;;;;1.70;0.60;;;13.80;99.90;;;;;;5076092;28;20048;-41
2023/04/29 10:53:27;;;;;;;2.83;0.63;;;13.80;99.90;;;;;;5075747;28;20056;-41
2023/04/29 10:55:56;;;;;;;2.97;0.70;;;13.90;99.90;;;;;;5074708;28;20049;-41
2023/04/29 10:58:40;;;;;;;3.65;0.60;;;14.00;99.90;;;;;;5075785;28;20048;-41
2023/04/29 11:01:07;;;;;;;1.65;0.70;;;14.00;99.90;;;;;;5075743;28;20045;-42
2023/04/29 11:03:53;;;;;;;4.07;0.90;;;14.10;99.90;;;;;;5075673;28;20173;-41
2023/04/29 11:06:23;;;;;;;4.15;1.20;;;14.20;99.90;;;;;;5075825;28;20059;-41
2023/04/29 11:09:07;;;;;;;1.77;0.70;;;14.10;99.90;;;;;;5074670;28;20040;-41
2023/04/29 11:12:07;;;;;;;3.65;0.75;;;14.20;99.90;;;;;;5075520;28;20127;-41
2023/04/29 11:14:40;;;;;;;2.47;0.82;;;14.20;99.90;;;;;;5063554;28;20052;-41
2023/04/29 11:17:16;;;;;;;1.75;0.73;;;14.20;99.90;;;;;;5075628;28;20182;-41
2023/04/29 11:19:45;;;;;;;3.38;1.17;;;14.30;99.90;;;;;;5075670;28;20137;-41
2023/04/29 11:22:28;;;;;;;3.08;1.10;;;14.40;99.90;;;;;;5075358;28;20253;-41
2023/04/29 11:25:08;;;;;;;4.25;1.15;;;14.40;99.90;;;;;;5075201;28;20059;-41
2023/04/29 11:27:35;;;;;;;3.28;1.30;;;14.30;99.90;;;;;;5074742;28;20113;-41
2023/04/29 11:30:04;;;;;;;1.95;0.82;;;14.30;99.90;;;;;;5075840;28;20045;-41
2023/04/29 11:32:34;;;;;;;2.67;0.95;;;14.40;99.90;;;;;;5074318;28;20041;-41
2023/04/29 11:35:11;;;;;;;3.25;1.10;;;14.40;99.90;;;;;;5075281;28;20049;-41
2023/04/29 11:37:38;;;;;;;1.63;0.70;;;14.50;99.90;;;;;;5075019;28;20043;-41
2023/04/29 11:40:05;;;;;;;2.75;1.25;;;14.40;99.90;;;;;;5074721;28;20062;-41
2023/04/29 11:42:33;;;;;;;;;;;14.40;99.90;;;;;;5075392;28;20083;-41
2023/04/29 11:44:59;;;;;;;;;;;14.50;99.90;;;;;;5075440;28;19943;-41
2023/04/29 11:47:27;;;;;;;5.05;1.40;;;14.50;99.90;;;;;;5073907;28;20363;-41
2023/04/29 11:49:53;;;;;;;2.92;1.27;;;14.50;99.90;;;;;;5074817;28;20495;-43
2023/04/29 11:52:19;;;;;;;5.88;1.85;;;14.50;99.90;;;;;;5056764;28;20399;-43
2023/04/29 11:54:46;;;;;;;4.95;1.50;;;14.50;99.90;;;;;;5056890;28;20048;-41
2023/04/29 11:57:12;;;;;;;3.03;1.05;;;14.60;99.90;;;;;;5074659;28;20044;-41
2023/04/29 11:59:41;;;;;;;2.55;1.27;;;14.50;99.90;;;;;;5073378;28;20476;-41
2023/04/29 12:02:11;;;;;;;2.83;0.98;;;14.50;99.90;;;;;;5074425;28;20109;-41
2023/04/29 12:04:45;;;;;;;2.95;1.17;;;14.50;99.90;;;;;;5074390;28;20051;-41
2023/04/29 12:07:13;;;;;;;2.08;0.82;;;14.50;99.90;;;;;;5074296;28;20044;-41
2023/04/29 12:09:46;;;;;;;2.72;0.80;;;14.50;99.90;;;;;;5074887;28;20048;-41
2023/04/29 12:12:13;;;;;;;1.40;0.60;;;14.50;99.90;;;;;;5074327;28;20044;-42
2023/04/29 12:14:40;;;;;;;2.05;0.75;;;14.50;99.90;;;;;;5073616;28;20048;-41
2023/04/29 12:17:07;;;;;;;2.80;0.70;;;14.50;99.90;;;;;;5074178;28;20492;-41
2023/04/29 12:19:34;;;;;;;2.20;0.70;;;14.50;99.90;;;;;;5073040;28;20482;-42
2023/04/29 12:22:02;;;;;;;1.75;0.70;;;14.60;99.90;;;;;;5074208;28;20036;-41
2023/04/29 12:24:27;;;;;;;2.03;0.75;;;14.60;99.90;;;;;;5073232;28;20127;-41
2023/04/29 12:26:54;;;;;;;2.83;0.90;;;14.60;99.90;;;;;;5074207;28;20551;-41
2023/04/29 12:29:23;;;;;;;1.88;0.82;;;14.60;99.90;;;;;;5073957;28;20387;-41
2023/04/29 12:31:50;;;;;;;5.55;1.50;;;14.60;99.90;;;;;;5073993;28;20040;-41
2023/04/29 12:34:15;;;;;;;1.75;0.85;;;14.70;99.90;;;;;;5073777;28;20064;-41
2023/04/29 12:36:42;;;;;;;1.42;0.60;;;14.70;99.90;;;;;;5073090;28;20052;-41
2023/04/29 12:39:10;;;;;;;1.35;0.65;;;14.70;99.90;;;;;;5073989;28;20063;-41
2023/04/29 12:41:36;;;;;;;1.70;0.70;;;14.80;99.90;;;;;;5073894;28;20037;-41
2023/04/29 12:44:03;;;;;;;1.98;0.82;;;14.90;99.90;;;;;;5073689;28;20044;-41
2023/04/29 12:46:34;;;;;;;1.02;0.52;;;15.00;99.90;;;;;;5073744;28;20507;-42
2023/04/29 12:49:02;;;;;;;1.45;0.60;;;14.90;99.50;;;;;;5073894;28;20040;-42
2023/04/29 12:51:35;;;;;;;1.65;0.73;;;14.90;99.90;;;;;;5073964;28;20090;-42
2023/04/29 12:54:02;;;;;;;2.85;0.80;;;15.00;99.90;;;;;;5073909;28;20411;-42